Time;durP1;ratioP1;P1;durP2;ratioP2;P2;SDS_P1;SDS_P2;PMS_P1;PMS_P2;Temp;Humidity;BMP_temperature;BMP_pressure;BME280_temperature;BME280_humidity;BME280_pressure;Samples;Min_cycle;Max_cycle;Signal;HPM_P1;HPM_P2
2022/04/02 00:02:04;;;;;;;2.67;1.23;;;3.40;82.10;;;;;;5064934;28;20044;-66
2022/04/02 00:04:37;;;;;;;4.60;1.58;;;3.40;82.10;;;;;;5062328;28;20052;-65
2022/04/02 00:07:05;;;;;;;2.85;1.60;;;3.40;82.10;;;;;;5061083;28;20052;-66
2022/04/02 00:09:34;;;;;;;2.75;1.38;;;3.40;82.00;;;;;;5059142;28;20055;-66
2022/04/02 00:12:02;;;;;;;2.67;1.50;;;3.40;81.90;;;;;;5061335;28;20128;-66
2022/04/02 00:14:29;;;;;;;3.70;1.00;;;3.40;81.90;;;;;;5057368;28;20041;-66
2022/04/02 00:16:56;;;;;;;2.58;1.40;;;3.40;81.80;;;;;;5058474;28;20090;-65
2022/04/02 00:19:23;;;;;;;4.40;1.30;;;3.30;81.80;;;;;;5060566;28;20044;-65
2022/04/02 00:21:50;;;;;;;2.53;1.02;;;3.40;81.80;;;;;;5059544;28;20072;-66
2022/04/02 00:24:17;;;;;;;2.03;1.13;;;3.40;81.80;;;;;;5061328;28;20602;-66
2022/04/02 00:26:46;;;;;;;4.10;1.60;;;3.40;81.60;;;;;;5062889;28;20522;-65
2022/04/02 00:29:13;;;;;;;9.15;1.45;;;3.40;81.50;;;;;;5051883;28;20596;-64
2022/04/02 00:31:40;;;;;;;3.97;1.40;;;3.40;81.50;;;;;;5060816;28;20049;-66
2022/04/02 00:34:08;;;;;;;2.40;1.08;;;3.30;81.40;;;;;;5058485;28;20041;-65
2022/04/02 00:36:37;;;;;;;1.77;1.00;;;3.30;81.30;;;;;;5056404;28;20056;-66
2022/04/02 00:39:07;;;;;;;1.77;0.93;;;3.40;81.10;;;;;;5056613;28;20040;-65
2022/04/02 00:41:34;;;;;;;2.35;1.25;;;3.40;81.10;;;;;;5059670;28;20126;-64
2022/04/02 00:44:10;;;;;;;1.98;0.82;;;3.40;80.90;;;;;;5057795;28;20040;-65
2022/04/02 00:46:38;;;;;;;3.38;1.15;;;3.30;81.00;;;;;;5042411;28;20194;-65
2022/04/02 00:49:06;;;;;;;2.67;1.05;;;3.30;81.00;;;;;;5065577;28;20555;-66
2022/04/02 00:51:41;;;;;;;7.38;1.80;;;3.40;81.00;;;;;;5047221;28;20127;-66
2022/04/02 00:54:09;;;;;;;2.85;1.30;;;3.30;81.00;;;;;;5061632;28;20052;-65
2022/04/02 00:56:37;;;;;;;2.00;0.95;;;3.40;81.00;;;;;;5059259;28;20052;-65
2022/04/02 00:59:06;;;;;;;4.00;1.05;;;3.40;80.90;;;;;;5059593;28;20122;-66
2022/04/02 01:01:34;;;;;;;2.47;0.88;;;3.30;81.00;;;;;;5050990;28;20123;-64
2022/04/02 01:04:03;;;;;;;2.17;0.77;;;3.30;81.00;;;;;;5043565;28;20052;-66
2022/04/02 01:06:36;;;;;;;2.30;1.10;;;3.40;80.90;;;;;;5054501;28;20044;-67
2022/04/02 01:09:04;;;;;;;1.95;0.90;;;3.40;80.90;;;;;;5054053;28;20090;-65
2022/04/02 01:11:38;;;;;;;3.65;1.40;;;3.40;80.90;;;;;;5041435;28;20049;-65
2022/04/02 01:14:08;;;;;;;2.08;1.15;;;3.30;80.90;;;;;;5043105;28;20052;-65
2022/04/02 01:16:35;;;;;;;4.15;2.00;;;3.30;80.90;;;;;;5046914;28;20044;-65
2022/04/02 01:19:06;;;;;;;;;;;3.30;80.90;;;;;;5043900;28;20044;-65
2022/04/02 01:21:34;;;;;;;3.47;1.10;;;3.30;80.90;;;;;;5057695;28;19928;-65
2022/04/02 01:24:15;;;;;;;1.90;0.80;;;3.30;81.10;;;;;;5043156;28;20044;-66
2022/04/02 01:26:43;;;;;;;4.18;1.95;;;3.20;81.10;;;;;;5041779;28;20048;-65
2022/04/02 01:29:18;;;;;;;2.75;0.95;;;3.30;81.10;;;;;;5041256;28;20052;-66
2022/04/02 01:31:50;;;;;;;1.42;0.63;;;3.20;81.10;;;;;;5056757;28;20137;-67
2022/04/02 01:34:21;;;;;;;3.63;1.00;;;3.20;81.20;;;;;;5041351;28;20048;-65
2022/04/02 01:36:51;;;;;;;2.22;0.85;;;3.20;81.20;;;;;;5044786;28;20044;-67
2022/04/02 01:39:32;;;;;;;3.88;1.67;;;3.20;81.30;;;;;;5065193;28;20055;-66
2022/04/02 01:42:05;;;;;;;3.45;1.20;;;3.20;81.40;;;;;;5061586;28;20068;-65
2022/04/02 01:44:35;;;;;;;2.13;0.93;;;3.20;81.50;;;;;;5043130;28;20409;-66
2022/04/02 01:47:03;;;;;;;1.50;0.93;;;3.20;81.40;;;;;;5043001;28;20125;-67
2022/04/02 01:49:31;;;;;;;1.83;0.90;;;3.20;81.40;;;;;;5043639;28;20055;-65
2022/04/02 01:52:01;;;;;;;3.25;0.90;;;3.20;81.50;;;;;;5041316;28;20037;-65
2022/04/02 01:54:30;;;;;;;2.20;1.00;;;3.20;81.50;;;;;;5051978;28;20044;-66
2022/04/02 01:57:05;;;;;;;1.65;0.82;;;3.20;81.40;;;;;;5043559;28;20041;-67
2022/04/02 01:59:33;;;;;;;1.35;0.63;;;3.10;81.50;;;;;;5057243;28;20102;-67
2022/04/02 02:02:00;;;;;;;2.53;0.82;;;3.20;81.40;;;;;;5041426;28;20067;-64
2022/04/02 02:04:27;;;;;;;1.73;0.82;;;3.20;81.30;;;;;;5043042;28;20437;-63
2022/04/02 02:06:54;;;;;;;1.15;0.65;;;3.10;81.30;;;;;;5047022;28;20066;-65
2022/04/02 02:09:23;;;;;;;3.50;1.08;;;3.10;81.30;;;;;;5066514;28;20086;-64
2022/04/02 02:11:58;;;;;;;1.58;0.60;;;3.10;81.30;;;;;;5043222;28;20573;-67
2022/04/02 02:14:40;;;;;;;0.90;0.50;;;3.10;81.40;;;;;;5043170;28;20044;-65
2022/04/02 02:17:15;;;;;;;1.85;0.80;;;3.10;81.30;;;;;;5040116;28;20193;-65
2022/04/02 02:19:44;;;;;;;;;;;3.10;81.20;;;;;;5046157;28;20139;-65
2022/04/02 02:22:11;;;;;;;1.90;0.73;;;3.10;81.10;;;;;;5057718;28;20019;-65
2022/04/02 02:24:38;;;;;;;1.75;0.90;;;3.10;81.00;;;;;;5040618;28;20118;-67
2022/04/02 02:27:07;;;;;;;1.30;0.73;;;3.00;81.00;;;;;;5063755;28;20049;-65
2022/04/02 02:29:34;;;;;;;2.60;1.20;;;3.00;81.10;;;;;;5067053;28;20127;-65
2022/04/02 02:32:13;;;;;;;1.67;0.70;;;3.10;81.00;;;;;;5038512;28;20513;-64
2022/04/02 02:37:26;;;;;;;2.60;0.93;;;3.00;80.80;;;;;;5063798;28;20051;-65
2022/04/02 02:40:01;;;;;;;2.70;1.35;;;3.10;80.60;;;;;;5062465;28;20460;-67
2022/04/02 02:42:33;;;;;;;2.35;1.15;;;3.00;80.60;;;;;;5046897;28;20168;-64
2022/04/02 02:45:19;;;;;;;4.43;0.93;;;3.10;80.50;;;;;;5058680;28;20059;-65
2022/04/02 02:47:46;;;;;;;1.83;0.80;;;3.10;80.50;;;;;;5033458;28;20130;-65
2022/04/02 02:50:17;;;;;;;3.40;0.70;;;3.00;80.40;;;;;;5039863;28;20037;-66
2022/04/02 02:52:55;;;;;;;1.95;0.73;;;3.00;80.40;;;;;;5055976;28;20060;-65
2022/04/02 02:55:22;;;;;;;2.33;0.95;;;3.00;80.30;;;;;;5040400;28;20080;-65
2022/04/02 02:57:52;;;;;;;1.83;1.02;;;3.00;80.20;;;;;;5059910;28;20082;-65
2022/04/02 03:00:20;;;;;;;1.45;0.77;;;3.00;80.20;;;;;;5047900;28;20123;-65
2022/04/02 03:02:51;;;;;;;2.67;0.93;;;3.00;80.10;;;;;;5048031;28;20075;-65
2022/04/02 03:05:21;;;;;;;3.33;1.42;;;3.00;80.00;;;;;;5050060;28;20094;-65
2022/04/02 03:07:53;;;;;;;1.95;0.77;;;3.00;80.10;;;;;;5048883;28;20055;-65
2022/04/02 03:10:31;;;;;;;2.72;0.77;;;3.00;80.10;;;;;;5049323;28;20048;-67
2022/04/02 03:13:00;;;;;;;2.35;1.15;;;3.00;80.10;;;;;;5044860;28;20083;-65
2022/04/02 03:15:33;;;;;;;5.43;1.02;;;3.00;79.90;;;;;;5042140;28;20533;-66
2022/04/02 03:18:07;;;;;;;1.60;0.82;;;3.00;79.90;;;;;;5038996;28;20057;-65
2022/04/02 03:20:37;;;;;;;1.55;0.65;;;3.00;79.70;;;;;;5040960;28;20048;-66
2022/04/02 03:23:06;;;;;;;3.70;0.80;;;3.00;79.70;;;;;;5043312;28;20059;-66
2022/04/02 03:25:33;;;;;;;3.17;1.00;;;3.00;79.60;;;;;;5042263;28;20053;-65
2022/04/02 03:28:03;;;;;;;2.78;0.98;;;3.00;79.60;;;;;;5045263;28;20045;-66
2022/04/02 03:30:31;;;;;;;1.20;0.65;;;3.00;79.50;;;;;;5061038;28;20120;-65
2022/04/02 03:33:00;;;;;;;2.73;1.20;;;2.90;79.60;;;;;;5041629;28;20370;-65
2022/04/02 03:35:28;;;;;;;4.35;0.65;;;3.00;79.30;;;;;;5045984;28;20489;-64
2022/04/02 03:37:55;;;;;;;6.70;1.00;;;3.00;79.30;;;;;;5036437;28;20045;-66
2022/04/02 03:40:25;;;;;;;1.35;0.88;;;2.90;79.10;;;;;;5059210;28;20413;-65
2022/04/02 03:42:53;;;;;;;2.53;0.70;;;2.90;79.10;;;;;;5059030;28;20053;-65
2022/04/02 03:45:27;;;;;;;7.40;1.20;;;2.90;79.00;;;;;;5065334;28;20133;-66
2022/04/02 03:47:57;;;;;;;3.83;1.50;;;2.90;78.90;;;;;;5055864;28;20060;-66
2022/04/02 03:50:26;;;;;;;1.65;0.77;;;2.90;79.00;;;;;;5046392;28;20055;-66
2022/04/02 03:52:56;;;;;;;2.27;1.10;;;2.90;79.00;;;;;;5043535;28;20044;-68
2022/04/02 03:55:29;;;;;;;1.10;0.57;;;2.80;79.10;;;;;;5060781;28;20555;-64
2022/04/02 03:57:57;;;;;;;1.48;0.60;;;2.90;79.10;;;;;;5058401;28;20068;-66
2022/04/02 04:00:28;;;;;;;2.10;0.93;;;2.90;79.10;;;;;;5040824;28;20052;-65
2022/04/02 04:03:02;;;;;;;1.58;0.70;;;2.90;79.10;;;;;;5045815;28;20064;-66
2022/04/02 04:05:33;;;;;;;2.83;1.10;;;2.90;79.10;;;;;;5058701;28;20052;-65
2022/04/02 04:08:01;;;;;;;1.00;0.57;;;2.90;79.00;;;;;;5058284;28;20052;-67
2022/04/02 04:10:33;;;;;;;1.63;0.77;;;3.00;79.10;;;;;;5044785;28;20048;-67
2022/04/02 04:13:01;;;;;;;2.60;1.00;;;2.90;79.00;;;;;;5045724;28;20044;-65
2022/04/02 04:15:33;;;;;;;1.65;0.98;;;2.90;79.20;;;;;;5043322;28;20052;-64
2022/04/02 04:18:03;;;;;;;3.78;1.30;;;3.00;79.20;;;;;;5050059;28;20044;-68
2022/04/02 04:20:32;;;;;;;1.35;0.73;;;3.00;79.40;;;;;;5055079;28;20050;-66
2022/04/02 04:23:01;;;;;;;3.15;0.73;;;3.00;79.40;;;;;;5066987;28;20458;-67
2022/04/02 04:25:30;;;;;;;1.58;0.98;;;3.00;79.60;;;;;;5056562;28;20044;-66
2022/04/02 04:28:01;;;;;;;2.78;1.00;;;2.90;79.60;;;;;;5044976;28;20052;-69
2022/04/02 04:30:29;;;;;;;3.15;1.20;;;2.90;79.70;;;;;;5044011;28;20040;-67
2022/04/02 04:32:58;;;;;;;5.20;1.17;;;2.90;79.70;;;;;;5041108;28;20379;-64
2022/04/02 04:35:26;;;;;;;1.38;0.75;;;2.90;79.80;;;;;;5044514;28;20048;-67
2022/04/02 04:37:53;;;;;;;5.57;1.45;;;2.90;79.90;;;;;;5068976;28;20040;-68
2022/04/02 04:40:25;;;;;;;3.00;1.27;;;3.00;79.90;;;;;;5051227;28;20068;-67
2022/04/02 04:42:53;;;;;;;1.83;0.88;;;2.90;79.80;;;;;;5044671;28;20136;-67
2022/04/02 04:45:28;;;;;;;2.60;1.17;;;2.90;80.00;;;;;;5051369;28;20152;-66
2022/04/02 04:47:55;;;;;;;3.53;1.38;;;2.90;79.90;;;;;;5051577;28;20059;-68
2022/04/02 04:50:26;;;;;;;1.90;1.05;;;2.90;79.90;;;;;;5049710;28;20037;-68
2022/04/02 04:52:57;;;;;;;2.70;1.33;;;2.90;80.00;;;;;;5052484;28;20045;-68
2022/04/02 04:55:24;;;;;;;2.67;0.85;;;2.90;80.10;;;;;;5063121;28;20044;-66
2022/04/02 04:57:52;;;;;;;3.72;1.40;;;2.90;80.10;;;;;;5051850;28;20044;-65
2022/04/02 05:00:25;;;;;;;3.10;1.58;;;2.90;80.00;;;;;;5067144;28;20051;-68
2022/04/02 05:02:52;;;;;;;3.00;1.02;;;2.90;79.90;;;;;;5050721;28;20045;-67
2022/04/02 05:05:31;;;;;;;4.45;2.08;;;2.90;79.90;;;;;;5070850;28;20097;-65
2022/04/02 05:08:00;;;;;;;2.05;0.90;;;2.90;79.90;;;;;;5066441;28;20055;-66
2022/04/02 05:10:28;;;;;;;2.03;0.80;;;2.90;79.90;;;;;;5044053;28;20076;-67
2022/04/02 05:12:57;;;;;;;3.15;0.98;;;2.90;79.90;;;;;;5047401;28;20410;-66
2022/04/02 05:15:25;;;;;;;3.17;1.33;;;2.80;79.90;;;;;;5057776;28;20389;-65
2022/04/02 05:17:52;;;;;;;1.90;0.75;;;2.80;79.90;;;;;;5041353;28;20052;-66
2022/04/02 05:20:19;;;;;;;1.67;0.90;;;2.90;79.90;;;;;;5061200;28;20555;-68
2022/04/02 05:22:49;;;;;;;2.58;1.17;;;2.90;79.70;;;;;;5041536;28;20040;-66
2022/04/02 05:25:16;;;;;;;1.88;1.13;;;2.90;79.70;;;;;;5043466;28;20036;-65
2022/04/02 05:27:45;;;;;;;2.30;1.00;;;2.90;79.60;;;;;;5040898;28;20039;-67
2022/04/02 05:30:13;;;;;;;3.13;1.38;;;2.80;79.60;;;;;;5060740;28;20048;-66
2022/04/02 05:32:40;;;;;;;4.15;1.10;;;2.90;79.60;;;;;;5063277;28;20055;-66
2022/04/02 05:35:09;;;;;;;2.20;1.13;;;2.80;79.40;;;;;;5064624;28;20078;-70
2022/04/02 05:37:42;;;;;;;2.55;1.05;;;2.80;79.50;;;;;;5067148;28;20040;-66
2022/04/02 05:40:12;;;;;;;2.00;0.90;;;2.80;79.50;;;;;;5066642;28;20055;-65
2022/04/02 05:42:40;;;;;;;1.70;0.85;;;2.80;79.60;;;;;;5048246;28;20505;-66
2022/04/02 05:45:10;;;;;;;5.13;1.23;;;2.80;79.50;;;;;;5066493;28;20405;-65
2022/04/02 05:47:44;;;;;;;1.95;0.70;;;2.90;79.50;;;;;;5055270;28;20067;-66
2022/04/02 05:50:12;;;;;;;1.80;0.63;;;2.90;79.50;;;;;;5049214;28;20067;-66
2022/04/02 05:52:39;;;;;;;3.55;0.85;;;2.80;79.40;;;;;;5048043;28;20080;-65
2022/04/02 05:55:07;;;;;;;1.67;0.85;;;2.90;79.40;;;;;;5053205;28;20402;-66
2022/04/02 05:57:36;;;;;;;5.18;1.05;;;2.90;79.30;;;;;;5046695;28;20036;-67
2022/04/02 06:00:05;;;;;;;4.55;0.88;;;2.90;79.20;;;;;;5050093;28;20045;-67
2022/04/02 06:02:41;;;;;;;2.80;0.90;;;2.90;79.10;;;;;;5047433;28;20090;-68
2022/04/02 06:05:10;;;;;;;2.40;0.85;;;2.90;78.90;;;;;;5044495;28;20036;-65
2022/04/02 06:07:37;;;;;;;1.73;0.82;;;2.90;78.80;;;;;;5051301;28;20044;-66
2022/04/02 06:10:06;;;;;;;1.85;0.73;;;2.90;78.80;;;;;;5049553;28;20052;-65
2022/04/02 06:12:35;;;;;;;2.15;0.88;;;2.90;78.90;;;;;;5047788;28;20052;-66
2022/04/02 06:15:02;;;;;;;2.05;0.93;;;2.90;78.90;;;;;;5047057;28;20052;-65
2022/04/02 06:17:29;;;;;;;2.30;0.93;;;2.90;78.70;;;;;;5052426;28;20151;-66
2022/04/02 06:19:56;;;;;;;2.22;0.90;;;2.90;78.10;;;;;;5047949;28;20154;-66
2022/04/02 06:22:23;;;;;;;2.88;0.90;;;2.90;77.90;;;;;;5052083;28;20041;-65
2022/04/02 06:24:51;;;;;;;4.00;1.27;;;3.00;77.50;;;;;;5045412;28;20182;-65
2022/04/02 06:27:18;;;;;;;5.78;1.60;;;2.90;77.00;;;;;;5054767;28;20044;-66
2022/04/02 06:29:46;;;;;;;2.30;0.93;;;2.90;76.50;;;;;;5049898;28;20044;-65
2022/04/02 06:32:13;;;;;;;2.42;1.08;;;2.90;76.10;;;;;;5047242;28;20056;-65
2022/04/02 06:34:40;;;;;;;3.13;1.15;;;2.90;76.10;;;;;;5029312;28;20052;-68
2022/04/02 06:37:08;;;;;;;1.88;0.88;;;3.00;76.10;;;;;;5033172;28;20044;-66
2022/04/02 06:39:35;;;;;;;2.35;0.65;;;2.90;75.60;;;;;;5054014;28;20067;-66
2022/04/02 06:42:02;;;;;;;1.23;0.65;;;2.90;75.50;;;;;;5044945;28;20565;-66
2022/04/02 06:44:36;;;;;;;3.65;0.98;;;2.90;75.50;;;;;;5055414;28;20051;-66
2022/04/02 06:47:06;;;;;;;2.10;0.73;;;2.90;75.30;;;;;;5059731;28;20426;-66
2022/04/02 06:49:33;;;;;;;2.95;0.90;;;2.90;75.00;;;;;;5045007;28;20382;-66
2022/04/02 06:52:00;;;;;;;1.23;0.60;;;2.90;75.00;;;;;;5047201;28;20355;-65
2022/04/02 06:54:27;;;;;;;2.92;0.82;;;2.90;74.80;;;;;;5047029;28;20036;-66
2022/04/02 06:56:57;;;;;;;1.65;0.90;;;2.90;74.80;;;;;;5050076;28;20044;-66
2022/04/02 06:59:24;;;;;;;3.42;1.05;;;2.90;74.50;;;;;;5052020;28;20044;-66
2022/04/02 07:01:52;;;;;;;4.22;1.23;;;2.90;74.20;;;;;;5049492;28;20156;-67
2022/04/02 07:04:20;;;;;;;1.73;0.80;;;2.90;74.10;;;;;;5050896;28;20040;-66
2022/04/02 07:06:47;;;;;;;2.38;0.80;;;2.90;74.10;;;;;;5051417;28;20128;-66
2022/04/02 07:09:15;;;;;;;3.05;0.98;;;3.00;74.30;;;;;;5069692;28;20048;-67
2022/04/02 07:11:42;;;;;;;1.60;1.10;;;2.90;74.00;;;;;;5071493;28;20145;-66
2022/04/02 07:14:10;;;;;;;1.65;1.00;;;3.00;74.20;;;;;;5053164;28;20189;-64
2022/04/02 07:16:38;;;;;;;1.85;0.60;;;3.00;74.30;;;;;;5045068;28;20048;-66
2022/04/02 07:19:06;;;;;;;1.77;0.88;;;3.00;73.70;;;;;;5048568;28;23174;-67
2022/04/02 07:21:35;;;;;;;2.30;0.80;;;3.00;73.70;;;;;;5051463;28;20049;-66
2022/04/02 07:24:03;;;;;;;2.35;0.80;;;3.00;73.90;;;;;;5055695;28;20059;-66
2022/04/02 07:26:33;;;;;;;2.10;1.25;;;3.00;73.70;;;;;;5048727;28;20130;-65
2022/04/02 07:29:00;;;;;;;2.70;0.82;;;3.00;73.80;;;;;;5029947;28;20051;-66
2022/04/02 07:31:28;;;;;;;5.18;0.80;;;3.00;73.60;;;;;;5052364;28;20051;-67
2022/04/02 07:33:55;;;;;;;4.80;1.17;;;3.00;73.50;;;;;;5051766;28;20079;-66
2022/04/02 07:36:35;;;;;;;2.22;1.10;;;3.00;73.10;;;;;;5047303;28;20595;-65
2022/04/02 07:39:11;;;;;;;2.60;1.52;;;3.00;73.50;;;;;;5053950;28;20057;-66
2022/04/02 07:41:46;;;;;;;1.65;0.90;;;3.00;73.70;;;;;;5054319;28;20047;-67
2022/04/02 07:44:30;;;;;;;2.42;1.27;;;3.10;73.60;;;;;;5054169;28;20060;-65
2022/04/02 07:46:59;;;;;;;4.70;1.40;;;3.10;73.30;;;;;;5058386;28;20045;-65
2022/04/02 07:49:28;;;;;;;2.55;1.30;;;3.00;73.20;;;;;;5054589;28;20044;-63
2022/04/02 07:51:57;;;;;;;3.33;1.25;;;3.00;72.50;;;;;;5052728;28;20037;-63
2022/04/02 07:54:26;;;;;;;2.13;1.30;;;3.00;72.70;;;;;;5052474;28;20044;-65
2022/04/02 07:56:58;;;;;;;1.97;1.07;;;3.00;72.80;;;;;;5054389;28;20044;-65
2022/04/02 07:59:31;;;;;;;2.10;1.30;;;3.00;72.70;;;;;;5053654;28;20072;-66
2022/04/02 08:01:59;;;;;;;2.17;0.90;;;3.00;72.50;;;;;;5052074;28;20456;-68
2022/04/02 08:04:27;;;;;;;3.55;1.00;;;3.10;72.70;;;;;;5054115;28;20083;-69
2022/04/02 08:06:55;;;;;;;3.65;1.23;;;3.10;72.00;;;;;;5053311;28;20040;-69
2022/04/02 08:09:29;;;;;;;3.63;1.92;;;3.10;72.20;;;;;;5035972;28;20046;-68
2022/04/02 08:11:58;;;;;;;2.33;1.08;;;3.10;72.40;;;;;;5048845;28;20559;-69
2022/04/02 08:14:28;;;;;;;2.20;1.20;;;3.10;72.10;;;;;;5056297;28;20052;-69
2022/04/02 08:16:59;;;;;;;2.42;1.10;;;3.10;71.70;;;;;;5029746;28;20049;-68
2022/04/02 08:19:27;;;;;;;2.38;1.05;;;3.10;71.70;;;;;;5051672;28;20045;-70
2022/04/02 08:21:54;;;;;;;2.78;1.30;;;3.10;72.00;;;;;;5055497;28;20521;-70
2022/04/02 08:24:22;;;;;;;4.93;1.48;;;3.20;71.90;;;;;;5053150;28;20032;-69
2022/04/02 08:27:02;;;;;;;5.05;1.23;;;3.20;71.90;;;;;;5053552;28;20512;-69
2022/04/02 08:29:49;;;;;;;3.17;1.90;;;3.20;72.30;;;;;;5049418;28;20083;-68
2022/04/02 08:32:27;;;;;;;5.70;1.70;;;3.30;72.30;;;;;;5033142;28;20126;-69
2022/04/02 08:35:06;;;;;;;2.80;1.02;;;3.30;71.60;;;;;;5050632;28;20052;-70
2022/04/02 08:37:59;;;;;;;2.58;1.02;;;3.20;71.80;;;;;;5057033;28;20094;-70
2022/04/02 08:40:47;;;;;;;4.25;1.58;;;3.30;72.10;;;;;;5049990;28;20041;-68
2022/04/02 08:44:00;;;;;;;4.47;1.23;;;3.30;72.20;;;;;;5049144;28;20048;-69
2022/04/02 08:46:37;;;;;;;3.78;1.30;;;3.40;71.90;;;;;;5052691;28;20040;-69
2022/04/02 08:49:22;;;;;;;3.75;1.50;;;3.30;71.50;;;;;;5055346;28;20063;-69
2022/04/02 08:52:05;;;;;;;3.15;1.08;;;3.30;71.60;;;;;;5048467;28;20048;-68
2022/04/02 08:54:40;;;;;;;3.40;1.92;;;3.30;71.30;;;;;;5046852;28;21759;-68
2022/04/02 08:57:23;;;;;;;2.67;1.30;;;3.30;71.60;;;;;;5048098;28;20284;-69
2022/04/02 09:00:05;;;;;;;4.18;1.38;;;3.40;71.60;;;;;;5062033;28;20115;-69
2022/04/02 09:03:09;;;;;;;3.53;1.45;;;3.40;71.10;;;;;;5070685;28;20045;-68
2022/04/02 09:05:54;;;;;;;2.25;1.15;;;3.40;71.10;;;;;;5053387;28;20068;-68
2022/04/02 09:08:51;;;;;;;2.53;1.33;;;3.40;71.50;;;;;;5048640;28;20040;-70
2022/04/02 09:11:23;;;;;;;2.88;1.85;;;3.50;71.50;;;;;;5046221;28;20938;-68
2022/04/02 09:14:26;;;;;;;3.83;1.30;;;3.40;71.10;;;;;;5043435;28;20055;-70
2022/04/02 09:17:15;;;;;;;2.22;1.30;;;3.50;71.30;;;;;;5049988;28;20054;-69
2022/04/02 09:19:52;;;;;;;3.38;1.38;;;3.50;70.60;;;;;;5056817;28;20177;-70
2022/04/02 09:22:33;;;;;;;3.58;1.65;;;3.50;70.40;;;;;;5067269;28;20135;-69
2022/04/02 09:25:47;;;;;;;4.80;1.45;;;3.50;70.70;;;;;;5068820;28;20051;-67
2022/04/02 09:28:34;;;;;;;3.05;1.65;;;3.50;70.50;;;;;;5067147;28;20041;-69
2022/04/02 09:31:47;;;;;;;4.00;1.38;;;3.60;70.10;;;;;;5067556;28;20049;-70
2022/04/02 09:34:57;;;;;;;2.72;1.40;;;3.60;69.80;;;;;;5055478;28;22527;-70
2022/04/02 09:37:43;;;;;;;3.25;1.77;;;3.60;69.90;;;;;;5068814;28;20135;-68
2022/04/02 09:40:12;;;;;;;4.78;1.75;;;3.70;70.10;;;;;;5068982;28;20494;-66
2022/04/02 09:42:42;;;;;;;5.47;1.50;;;3.70;69.80;;;;;;5069516;28;20052;-69
2022/04/02 09:45:12;;;;;;;2.50;1.50;;;3.70;70.00;;;;;;5069133;28;20483;-68
2022/04/02 09:48:08;;;;;;;2.75;1.45;;;3.70;70.20;;;;;;5066901;28;20456;-70
2022/04/02 09:50:37;;;;;;;4.93;1.90;;;3.80;70.20;;;;;;5068190;28;20036;-67
2022/04/02 09:53:16;;;;;;;9.07;1.27;;;3.90;70.10;;;;;;5049963;28;20052;-68
2022/04/02 09:55:51;;;;;;;3.97;1.58;;;3.90;70.50;;;;;;5069588;28;20049;-67
2022/04/02 09:58:57;;;;;;;7.00;1.27;;;3.90;70.30;;;;;;5047869;28;20082;-68
2022/04/02 10:01:30;;;;;;;3.33;1.67;;;4.00;69.90;;;;;;5040205;28;20048;-69
2022/04/02 10:04:01;;;;;;;3.05;1.65;;;4.10;69.90;;;;;;5068069;28;20421;-69
2022/04/02 10:06:36;;;;;;;3.30;1.40;;;4.00;70.20;;;;;;5052304;28;20052;-67
2022/04/02 10:09:09;;;;;;;4.18;1.80;;;4.10;69.80;;;;;;5051043;28;20052;-69
2022/04/02 10:11:41;;;;;;;5.22;1.75;;;4.20;69.30;;;;;;5051352;28;20044;-69
2022/04/02 10:14:08;;;;;;;5.38;2.42;;;4.20;68.70;;;;;;5061306;28;20044;-70
2022/04/02 10:16:36;;;;;;;4.72;1.83;;;4.20;68.60;;;;;;5058321;28;20059;-70
2022/04/02 10:19:09;;;;;;;3.95;1.30;;;4.20;68.40;;;;;;5053172;28;20095;-68
2022/04/02 10:21:39;;;;;;;2.80;1.40;;;4.20;67.80;;;;;;5051457;28;20134;-68
2022/04/02 10:24:24;;;;;;;5.47;1.70;;;4.20;68.20;;;;;;5055188;28;20071;-69
2022/04/02 10:26:54;;;;;;;2.25;1.67;;;4.30;68.40;;;;;;5068303;28;20123;-69
2022/04/02 10:29:40;;;;;;;3.47;1.70;;;4.40;67.30;;;;;;5063407;28;20087;-70
2022/04/02 10:32:24;;;;;;;2.72;1.35;;;4.40;66.90;;;;;;5062636;28;20143;-69
2022/04/02 10:34:58;;;;;;;4.35;1.63;;;4.40;66.80;;;;;;5065830;28;20036;-69
2022/04/02 10:37:38;;;;;;;5.00;1.55;;;4.40;66.50;;;;;;5056209;28;20565;-68
2022/04/02 10:40:07;;;;;;;1.50;0.90;;;4.40;66.50;;;;;;5067127;28;20707;-69
2022/04/02 10:42:37;;;;;;;2.58;1.20;;;4.40;66.90;;;;;;5057687;28;20603;-69
2022/04/02 10:45:07;;;;;;;4.93;1.27;;;4.50;66.70;;;;;;5069032;28;20134;-68
2022/04/02 10:47:39;;;;;;;3.47;1.58;;;4.50;67.00;;;;;;5069423;28;20040;-69
2022/04/02 10:50:08;;;;;;;2.30;1.52;;;4.50;66.80;;;;;;5070799;28;20044;-69
2022/04/02 10:52:37;;;;;;;2.15;1.15;;;4.60;66.30;;;;;;5071444;28;20048;-68
2022/04/02 10:55:05;;;;;;;2.63;1.23;;;4.50;66.20;;;;;;5054336;28;20400;-69
2022/04/02 10:57:34;;;;;;;3.25;1.80;;;4.50;66.00;;;;;;5071307;28;20040;-68
2022/04/02 11:00:04;;;;;;;4.22;1.73;;;4.60;66.60;;;;;;5056301;28;20570;-67
2022/04/02 11:02:41;;;;;;;2.58;1.08;;;4.60;66.40;;;;;;5056675;28;20040;-68
2022/04/02 11:05:09;;;;;;;6.82;2.25;;;4.70;66.10;;;;;;5046447;28;20091;-69
2022/04/02 11:07:42;;;;;;;4.13;1.63;;;4.70;65.80;;;;;;5047495;28;20186;-68
2022/04/02 11:10:13;;;;;;;3.42;1.23;;;4.80;66.10;;;;;;5069163;28;20037;-68
2022/04/02 11:12:42;;;;;;;3.40;1.05;;;4.80;65.90;;;;;;5069377;28;20375;-69
2022/04/02 11:15:12;;;;;;;3.08;1.60;;;4.90;65.50;;;;;;5063088;28;20053;-69
2022/04/02 11:17:41;;;;;;;4.70;2.67;;;4.90;65.40;;;;;;5063723;28;20044;-70
2022/04/02 11:20:11;;;;;;;3.83;1.48;;;5.00;65.20;;;;;;5071062;28;20048;-69
2022/04/02 11:22:47;;;;;;;;;;;5.00;65.30;;;;;;5073201;28;20048;-69
2022/04/02 11:25:24;;;;;;;3.05;1.42;;;5.10;65.50;;;;;;5073216;28;19936;-68
2022/04/02 11:27:54;;;;;;;4.72;1.70;;;5.20;65.50;;;;;;5071716;28;20041;-69
2022/04/02 11:30:22;;;;;;;5.40;1.50;;;5.30;65.80;;;;;;5067735;28;20064;-70
2022/04/02 11:32:51;;;;;;;2.75;1.23;;;5.40;66.30;;;;;;5071548;28;20140;-70
2022/04/02 11:35:22;;;;;;;3.72;1.20;;;5.50;64.90;;;;;;5071667;28;20072;-70
2022/04/02 11:38:02;;;;;;;3.22;1.08;;;5.40;64.30;;;;;;5071665;28;20044;-70
2022/04/02 11:40:31;;;;;;;1.65;0.82;;;5.50;64.10;;;;;;5071451;28;20044;-69
2022/04/02 11:43:02;;;;;;;2.72;1.35;;;5.50;64.10;;;;;;5071902;28;20504;-69
2022/04/02 11:45:30;;;;;;;2.45;1.15;;;5.60;62.60;;;;;;5071144;28;20703;-70
2022/04/02 11:48:05;;;;;;;3.53;1.20;;;5.60;62.50;;;;;;5070809;28;20517;-70
2022/04/02 11:50:34;;;;;;;3.17;1.05;;;5.60;62.20;;;;;;5065849;28;20387;-71
2022/04/02 11:53:03;;;;;;;4.05;1.55;;;5.60;61.30;;;;;;5053658;28;20051;-70
2022/04/02 11:55:36;;;;;;;2.38;1.40;;;5.60;62.10;;;;;;5069511;28;20044;-71
2022/04/02 11:58:06;;;;;;;5.18;1.05;;;5.60;62.50;;;;;;5065115;28;20136;-70
2022/04/02 12:00:39;;;;;;;2.28;1.13;;;5.60;62.20;;;;;;5055239;28;20097;-69
2022/04/02 12:03:24;;;;;;;6.10;2.67;;;5.70;62.60;;;;;;5053519;28;20048;-69
2022/04/02 12:05:52;;;;;;;4.50;1.67;;;5.70;62.30;;;;;;5056570;28;20050;-71
2022/04/02 12:08:31;;;;;;;5.28;1.77;;;5.70;61.30;;;;;;5050556;28;20033;-70
2022/04/02 12:10:59;;;;;;;4.60;2.15;;;5.70;61.90;;;;;;5055004;28;20044;-69
2022/04/02 12:13:26;;;;;;;3.83;1.52;;;5.80;62.00;;;;;;5048381;28;21374;-70
2022/04/02 12:16:14;;;;;;;1.75;0.93;;;5.70;61.50;;;;;;5051792;28;20055;-71
2022/04/02 12:18:54;;;;;;;1.80;1.02;;;5.80;61.40;;;;;;5046165;28;20059;-71
2022/04/02 12:21:32;;;;;;;3.00;1.23;;;5.80;60.70;;;;;;5058841;28;20040;-71
2022/04/02 12:24:05;;;;;;;3.97;1.20;;;5.80;59.90;;;;;;5038642;28;20056;-70
2022/04/02 12:26:35;;;;;;;2.38;1.17;;;5.80;60.20;;;;;;5063143;28;20078;-70
2022/04/02 12:29:04;;;;;;;10.07;2.55;;;5.80;59.80;;;;;;5051237;28;20052;-70
2022/04/02 12:31:35;;;;;;;4.35;2.10;;;5.90;60.20;;;;;;5060167;28;20045;-72
2022/04/02 12:34:04;;;;;;;5.13;2.40;;;5.90;60.50;;;;;;5046181;28;20067;-71
2022/04/02 12:36:32;;;;;;;4.70;2.05;;;6.00;61.10;;;;;;5059466;28;20078;-70
2022/04/02 12:39:03;;;;;;;5.18;1.75;;;6.10;60.80;;;;;;5048448;28;20057;-71
2022/04/02 12:41:31;;;;;;;3.88;1.42;;;6.00;59.20;;;;;;5052896;28;20126;-69
2022/04/02 12:44:01;;;;;;;2.50;1.27;;;6.10;59.70;;;;;;5063622;28;20123;-70
2022/04/02 12:46:29;;;;;;;2.90;1.10;;;6.10;59.40;;;;;;5060828;28;20052;-70
2022/04/02 12:48:57;;;;;;;2.78;1.23;;;6.10;59.90;;;;;;5051776;28;20055;-70
2022/04/02 12:51:25;;;;;;;2.38;1.08;;;6.10;58.70;;;;;;5048229;28;20827;-70
2022/04/02 12:53:58;;;;;;;2.90;1.50;;;6.20;58.10;;;;;;5070614;28;20382;-70
2022/04/02 12:56:28;;;;;;;3.17;1.20;;;6.20;59.00;;;;;;5064000;28;20049;-71
2022/04/02 12:58:58;;;;;;;2.47;1.15;;;6.20;59.30;;;;;;5053979;28;20168;-70
2022/04/02 13:01:30;;;;;;;3.10;1.20;;;6.20;58.50;;;;;;5055879;28;20482;-71
2022/04/02 13:04:08;;;;;;;5.93;1.67;;;6.30;57.90;;;;;;5057515;28;20105;-70
2022/04/02 13:06:47;;;;;;;2.55;1.02;;;6.30;57.50;;;;;;5053962;28;20135;-71
2022/04/02 13:09:15;;;;;;;2.92;1.13;;;6.30;56.80;;;;;;5060314;28;20067;-70
2022/04/02 13:11:58;;;;;;;3.80;1.27;;;6.30;57.20;;;;;;5054972;28;20505;-71
2022/04/02 13:14:26;;;;;;;3.95;1.42;;;6.40;57.20;;;;;;5051136;28;20105;-70
2022/04/02 13:16:54;;;;;;;4.63;1.45;;;6.40;57.10;;;;;;5052524;28;20112;-70
2022/04/02 13:22:12;;;;;;;1.85;0.95;;;6.50;56.20;;;;;;5049331;28;20107;-70
2022/04/02 13:24:54;;;;;;;2.50;1.27;;;6.50;56.40;;;;;;5070759;28;20044;-70
2022/04/02 13:28:00;;;;;;;3.75;1.70;;;6.50;55.00;;;;;;5068751;28;20052;-71
2022/04/02 13:30:34;;;;;;;2.55;1.40;;;6.50;55.40;;;;;;5046121;28;20106;-70